PRG weather

Václav Havel Airport Prague
Prague, Prague (capital city), Czechia

Public forecast

Using degrees Celsius for public forecast. Weather courtesy of forecast.io.

METAR (pilot weather report)

Retrieved 2019/02/17 23:30 UTC (26 minutes ago):

LKPR 172330Z VRB02KT 8000 NSC M00/M02 Q1024 NOSIG

TAF (pilot weather forecast)

Retrieved 2019/02/17 18:10 UTC (6 hours ago):

TAF LKPR 171700Z 1718/1900 VRB02KT 7000 NSC PROB30 TEMPO 1802/1808 2000 MIFG NSC TEMPO 1810/1817 20005KT